sensor_id;sensor_type;location;lat;lon;timestamp;pressure;altitude;pressure_sealevel;temperature;humidity
38612;BME280;24368;52.156;20.788;2022-11-23T00:02:08;99716.85;;;0.88;100.00
38612;BME280;24368;52.156;20.788;2022-11-23T00:07:10;99713.95;;;0.90;100.00
38612;BME280;24368;52.156;20.788;2022-11-23T00:12:11;99706.80;;;0.87;100.00
38612;BME280;24368;52.156;20.788;2022-11-23T00:17:12;99706.73;;;0.79;100.00
38612;BME280;24368;52.156;20.788;2022-11-23T00:22:13;99714.95;;;0.80;100.00
38612;BME280;24368;52.156;20.788;2022-11-23T00:27:14;99710.54;;;0.86;100.00
38612;BME280;24368;52.156;20.788;2022-11-23T00:32:15;99708.27;;;0.84;100.00
38612;BME280;24368;52.156;20.788;2022-11-23T00:37:17;99706.17;;;0.82;100.00
38612;BME280;24368;52.156;20.788;2022-11-23T00:42:18;99709.06;;;0.75;100.00
38612;BME280;24368;52.156;20.788;2022-11-23T00:47:19;99702.79;;;0.70;100.00
38612;BME280;24368;52.156;20.788;2022-11-23T00:52:20;99702.24;;;0.73;100.00
38612;BME280;24368;52.156;20.788;2022-11-23T00:57:21;99699.48;;;0.83;100.00
38612;BME280;24368;52.156;20.788;2022-11-23T01:02:22;99704.52;;;0.86;100.00
38612;BME280;24368;52.156;20.788;2022-11-23T01:07:23;99700.47;;;0.82;100.00
38612;BME280;24368;52.156;20.788;2022-11-23T01:12:24;99697.42;;;0.70;100.00
38612;BME280;24368;52.156;20.788;2022-11-23T01:17:27;99699.40;;;0.64;100.00
38612;BME280;24368;52.156;20.788;2022-11-23T01:22:29;99708.91;;;0.57;100.00
38612;BME280;24368;52.156;20.788;2022-11-23T01:27:30;99694.87;;;0.57;100.00
38612;BME280;24368;52.156;20.788;2022-11-23T01:32:31;99692.76;;;0.60;100.00
38612;BME280;24368;52.156;20.788;2022-11-23T01:37:32;99696.86;;;0.63;100.00
38612;BME280;24368;52.156;20.788;2022-11-23T01:42:42;99694.19;;;0.72;100.00
38612;BME280;24368;52.156;20.788;2022-11-23T01:47:44;99699.63;;;0.63;100.00
38612;BME280;24368;52.156;20.788;2022-11-23T01:52:45;99699.94;;;0.57;100.00
38612;BME280;24368;52.156;20.788;2022-11-23T01:57:46;99694.57;;;0.57;100.00
38612;BME280;24368;52.156;20.788;2022-11-23T02:02:55;99696.81;;;0.59;100.00
38612;BME280;24368;52.156;20.788;2022-11-23T02:07:59;99699.23;;;0.61;100.00
38612;BME280;24368;52.156;20.788;2022-11-23T02:13:06;99702.69;;;0.62;100.00
38612;BME280;24368;52.156;20.788;2022-11-23T02:18:13;99708.13;;;0.68;100.00
38612;BME280;24368;52.156;20.788;2022-11-23T02:28:44;99728.57;;;0.61;100.00
38612;BME280;24368;52.156;20.788;2022-11-23T02:33:46;99731.39;;;0.48;100.00
38612;BME280;24368;52.156;20.788;2022-11-23T02:38:47;99740.44;;;0.45;100.00
38612;BME280;24368;52.156;20.788;2022-11-23T02:43:53;99735.77;;;0.47;100.00
38612;BME280;24368;52.156;20.788;2022-11-23T02:48:55;99733.75;;;0.49;100.00
38612;BME280;24368;52.156;20.788;2022-11-23T02:53:57;99727.91;;;0.58;100.00
38612;BME280;24368;52.156;20.788;2022-11-23T02:58:58;99734.94;;;0.62;100.00
38612;BME280;24368;52.156;20.788;2022-11-23T03:03:59;99743.36;;;0.58;100.00
38612;BME280;24368;52.156;20.788;2022-11-23T03:09:00;99743.02;;;0.58;100.00
38612;BME280;24368;52.156;20.788;2022-11-23T03:14:02;99747.88;;;0.55;100.00
38612;BME280;24368;52.156;20.788;2022-11-23T03:19:03;99754.14;;;0.62;100.00
38612;BME280;24368;52.156;20.788;2022-11-23T03:24:05;99751.91;;;0.64;100.00
38612;BME280;24368;52.156;20.788;2022-11-23T03:29:06;99748.92;;;0.63;100.00
38612;BME280;24368;52.156;20.788;2022-11-23T03:34:08;99750.02;;;0.60;100.00
38612;BME280;24368;52.156;20.788;2022-11-23T03:39:09;99746.20;;;0.57;100.00
38612;BME280;24368;52.156;20.788;2022-11-23T03:44:10;99755.77;;;0.61;100.00
38612;BME280;24368;52.156;20.788;2022-11-23T03:49:12;99751.06;;;0.64;100.00
38612;BME280;24368;52.156;20.788;2022-11-23T03:54:13;99743.23;;;0.62;100.00
38612;BME280;24368;52.156;20.788;2022-11-23T03:59:14;99739.79;;;0.59;100.00
38612;BME280;24368;52.156;20.788;2022-11-23T04:04:15;99745.19;;;0.52;100.00
38612;BME280;24368;52.156;20.788;2022-11-23T04:09:18;99744.54;;;0.59;100.00
38612;BME280;24368;52.156;20.788;2022-11-23T04:14:19;99746.66;;;0.70;100.00
38612;BME280;24368;52.156;20.788;2022-11-23T04:19:20;99747.53;;;0.76;100.00
38612;BME280;24368;52.156;20.788;2022-11-23T04:24:22;99747.80;;;0.56;100.00
38612;BME280;24368;52.156;20.788;2022-11-23T04:29:23;99742.56;;;0.52;100.00
38612;BME280;24368;52.156;20.788;2022-11-23T04:34:24;99749.90;;;0.51;100.00
38612;BME280;24368;52.156;20.788;2022-11-23T04:39:25;99743.48;;;0.56;100.00
38612;BME280;24368;52.156;20.788;2022-11-23T04:44:26;99743.96;;;0.62;100.00
38612;BME280;24368;52.156;20.788;2022-11-23T04:49:27;99743.25;;;0.60;100.00
38612;BME280;24368;52.156;20.788;2022-11-23T04:54:28;99738.58;;;0.52;100.00
38612;BME280;24368;52.156;20.788;2022-11-23T04:59:29;99737.89;;;0.57;100.00
38612;BME280;24368;52.156;20.788;2022-11-23T05:04:30;99734.51;;;0.60;100.00
38612;BME280;24368;52.156;20.788;2022-11-23T05:09:31;99730.14;;;0.59;100.00
38612;BME280;24368;52.156;20.788;2022-11-23T05:14:32;99739.66;;;0.51;100.00
38612;BME280;24368;52.156;20.788;2022-11-23T05:19:33;99740.03;;;0.48;100.00
38612;BME280;24368;52.156;20.788;2022-11-23T05:24:34;99738.05;;;0.47;100.00
38612;BME280;24368;52.156;20.788;2022-11-23T05:29:36;99741.23;;;0.43;100.00
38612;BME280;24368;52.156;20.788;2022-11-23T05:34:37;99735.06;;;0.37;100.00
38612;BME280;24368;52.156;20.788;2022-11-23T05:39:38;99741.10;;;0.38;100.00
38612;BME280;24368;52.156;20.788;2022-11-23T05:44:39;99752.95;;;0.23;100.00
38612;BME280;24368;52.156;20.788;2022-11-23T05:49:40;99757.15;;;0.31;100.00
38612;BME280;24368;52.156;20.788;2022-11-23T05:54:42;99747.42;;;0.39;100.00
38612;BME280;24368;52.156;20.788;2022-11-23T05:59:43;99748.17;;;0.43;100.00
38612;BME280;24368;52.156;20.788;2022-11-23T06:04:44;99750.58;;;0.41;100.00
38612;BME280;24368;52.156;20.788;2022-11-23T06:09:45;99754.71;;;0.39;100.00
38612;BME280;24368;52.156;20.788;2022-11-23T06:14:46;99754.16;;;0.32;100.00
38612;BME280;24368;52.156;20.788;2022-11-23T06:19:48;99756.90;;;0.24;100.00
38612;BME280;24368;52.156;20.788;2022-11-23T06:24:49;99757.15;;;0.23;100.00
38612;BME280;24368;52.156;20.788;2022-11-23T06:29:50;99764.02;;;0.37;100.00
38612;BME280;24368;52.156;20.788;2022-11-23T06:34:52;99759.09;;;0.43;100.00
38612;BME280;24368;52.156;20.788;2022-11-23T06:39:53;99764.20;;;0.37;100.00
38612;BME280;24368;52.156;20.788;2022-11-23T06:44:54;99761.16;;;0.23;100.00
38612;BME280;24368;52.156;20.788;2022-11-23T06:49:55;99763.52;;;0.19;100.00
38612;BME280;24368;52.156;20.788;2022-11-23T06:54:56;99771.98;;;0.32;100.00
38612;BME280;24368;52.156;20.788;2022-11-23T06:59:57;99778.63;;;0.44;100.00
38612;BME280;24368;52.156;20.788;2022-11-23T07:04:58;99785.96;;;0.51;100.00
38612;BME280;24368;52.156;20.788;2022-11-23T07:09:59;99792.69;;;0.49;100.00
38612;BME280;24368;52.156;20.788;2022-11-23T07:15:00;99800.88;;;0.43;100.00
38612;BME280;24368;52.156;20.788;2022-11-23T07:20:02;99798.64;;;0.38;100.00
38612;BME280;24368;52.156;20.788;2022-11-23T07:25:04;99797.76;;;0.33;100.00
38612;BME280;24368;52.156;20.788;2022-11-23T07:30:06;99804.41;;;0.37;100.00
38612;BME280;24368;52.156;20.788;2022-11-23T07:35:08;99805.40;;;0.40;100.00
38612;BME280;24368;52.156;20.788;2022-11-23T07:40:09;99803.19;;;0.45;100.00
38612;BME280;24368;52.156;20.788;2022-11-23T07:45:11;99799.16;;;0.38;100.00
38612;BME280;24368;52.156;20.788;2022-11-23T07:50:13;99800.15;;;0.38;100.00
38612;BME280;24368;52.156;20.788;2022-11-23T07:55:14;99792.34;;;0.36;100.00
38612;BME280;24368;52.156;20.788;2022-11-23T08:00:16;99791.46;;;0.28;100.00
38612;BME280;24368;52.156;20.788;2022-11-23T08:05:17;99795.98;;;0.34;100.00
38612;BME280;24368;52.156;20.788;2022-11-23T08:10:18;99808.80;;;0.26;100.00
38612;BME280;24368;52.156;20.788;2022-11-23T08:19:44;99812.66;;;0.14;100.00
38612;BME280;24368;52.156;20.788;2022-11-23T08:24:45;99809.86;;;0.04;100.00
38612;BME280;24368;52.156;20.788;2022-11-23T08:29:50;99809.06;;;0.11;100.00
38612;BME280;24368;52.156;20.788;2022-11-23T08:34:51;99811.16;;;0.27;100.00
38612;BME280;24368;52.156;20.788;2022-11-23T08:39:53;99807.99;;;0.35;100.00
38612;BME280;24368;52.156;20.788;2022-11-23T08:44:54;99814.95;;;0.24;100.00
38612;BME280;24368;52.156;20.788;2022-11-23T08:49:55;99811.59;;;0.15;100.00
38612;BME280;24368;52.156;20.788;2022-11-23T08:54:56;99810.44;;;0.11;100.00
38612;BME280;24368;52.156;20.788;2022-11-23T08:59:57;99821.45;;;0.07;100.00
38612;BME280;24368;52.156;20.788;2022-11-23T09:05:01;99823.88;;;0.17;100.00
38612;BME280;24368;52.156;20.788;2022-11-23T09:10:05;99826.19;;;0.22;100.00
38612;BME280;24368;52.156;20.788;2022-11-23T09:15:07;99821.77;;;0.23;100.00
38612;BME280;24368;52.156;20.788;2022-11-23T09:20:09;99820.46;;;0.12;100.00
38612;BME280;24368;52.156;20.788;2022-11-23T09:25:10;99820.77;;;0.02;100.00
38612;BME280;24368;52.156;20.788;2022-11-23T09:30:12;99817.77;;;0.08;100.00
38612;BME280;24368;52.156;20.788;2022-11-23T09:35:14;99822.66;;;0.20;100.00
38612;BME280;24368;52.156;20.788;2022-11-23T09:40:15;99831.27;;;0.21;100.00
38612;BME280;24368;52.156;20.788;2022-11-23T09:50:26;99821.02;;;0.19;100.00
38612;BME280;24368;52.156;20.788;2022-11-23T09:55:43;99805.79;;;0.29;100.00
38612;BME280;24368;52.156;20.788;2022-11-23T10:01:06;99800.66;;;0.31;100.00
38612;BME280;24368;52.156;20.788;2022-11-23T10:17:08;99794.35;;;0.34;100.00
38612;BME280;24368;52.156;20.788;2022-11-23T10:22:30;99797.60;;;0.30;100.00
38612;BME280;24368;52.156;20.788;2022-11-23T10:27:35;99798.95;;;0.31;100.00
38612;BME280;24368;52.156;20.788;2022-11-23T10:37:49;99791.20;;;0.30;100.00
38612;BME280;24368;52.156;20.788;2022-11-23T10:42:55;99787.16;;;0.33;100.00
38612;BME280;24368;52.156;20.788;2022-11-23T10:47:58;99782.21;;;0.32;100.00
38612;BME280;24368;52.156;20.788;2022-11-23T10:53:18;99778.66;;;0.23;100.00
38612;BME280;24368;52.156;20.788;2022-11-23T10:58:25;99772.95;;;0.25;100.00
38612;BME280;24368;52.156;20.788;2022-11-23T11:03:30;99766.79;;;0.35;100.00
38612;BME280;24368;52.156;20.788;2022-11-23T11:08:47;99760.43;;;0.39;100.00
38612;BME280;24368;52.156;20.788;2022-11-23T11:13:49;99753.89;;;0.38;100.00
38612;BME280;24368;52.156;20.788;2022-11-23T11:18:50;99749.17;;;0.34;100.00
38612;BME280;24368;52.156;20.788;2022-11-23T11:29:02;99752.73;;;0.42;100.00
38612;BME280;24368;52.156;20.788;2022-11-23T11:39:17;99751.57;;;0.32;100.00
38612;BME280;24368;52.156;20.788;2022-11-23T11:44:22;99751.54;;;0.30;100.00
38612;BME280;24368;52.156;20.788;2022-11-23T11:49:29;99747.98;;;0.29;100.00
38612;BME280;24368;52.156;20.788;2022-11-23T11:59:57;99765.73;;;0.45;100.00
38612;BME280;24368;52.156;20.788;2022-11-23T12:05:19;99767.91;;;0.43;100.00
38612;BME280;24368;52.156;20.788;2022-11-23T12:10:40;99767.41;;;0.25;100.00
38612;BME280;24368;52.156;20.788;2022-11-23T12:15:47;99778.30;;;0.26;100.00
38612;BME280;24368;52.156;20.788;2022-11-23T12:21:35;99771.34;;;0.21;100.00
38612;BME280;24368;52.156;20.788;2022-11-23T12:26:44;99770.17;;;0.31;100.00
38612;BME280;24368;52.156;20.788;2022-11-23T12:31:56;99765.52;;;0.25;100.00
38612;BME280;24368;52.156;20.788;2022-11-23T12:42:44;99755.19;;;0.21;100.00
38612;BME280;24368;52.156;20.788;2022-11-23T12:53:39;99746.19;;;0.37;100.00
38612;BME280;24368;52.156;20.788;2022-11-23T12:58:43;99745.89;;;0.41;100.00
38612;BME280;24368;52.156;20.788;2022-11-23T13:19:33;99722.36;;;0.33;100.00
38612;BME280;24368;52.156;20.788;2022-11-23T13:30:27;99752.04;;;0.22;100.00
38612;BME280;24368;52.156;20.788;2022-11-23T13:40:34;99752.78;;;0.11;100.00
38612;BME280;24368;52.156;20.788;2022-11-23T13:45:36;99751.14;;;0.14;100.00
38612;BME280;24368;52.156;20.788;2022-11-23T13:50:54;99751.11;;;0.25;100.00
38612;BME280;24368;52.156;20.788;2022-11-23T13:56:14;99754.05;;;0.29;100.00
38612;BME280;24368;52.156;20.788;2022-11-23T14:44:20;99768.39;;;0.13;100.00
38612;BME280;24368;52.156;20.788;2022-11-23T14:49:23;99774.69;;;0.17;100.00
38612;BME280;24368;52.156;20.788;2022-11-23T14:54:25;99776.17;;;0.18;100.00
38612;BME280;24368;52.156;20.788;2022-11-23T14:59:33;99782.46;;;0.12;100.00
38612;BME280;24368;52.156;20.788;2022-11-23T15:04:39;99796.14;;;0.05;100.00
38612;BME280;24368;52.156;20.788;2022-11-23T15:10:16;99799.66;;;0.04;100.00
38612;BME280;24368;52.156;20.788;2022-11-23T15:15:24;99799.52;;;0.09;100.00
38612;BME280;24368;52.156;20.788;2022-11-23T15:20:32;99800.15;;;0.10;100.00
38612;BME280;24368;52.156;20.788;2022-11-23T15:25:34;99793.17;;;0.05;100.00
38612;BME280;24368;52.156;20.788;2022-11-23T15:30:35;99793.94;;;-0.01;100.00
38612;BME280;24368;52.156;20.788;2022-11-23T15:35:38;99793.58;;;-0.01;100.00
38612;BME280;24368;52.156;20.788;2022-11-23T15:40:42;99790.70;;;-0.02;100.00
38612;BME280;24368;52.156;20.788;2022-11-23T15:50:55;99794.68;;;-0.10;100.00
38612;BME280;24368;52.156;20.788;2022-11-23T15:56:00;99800.52;;;-0.17;100.00
38612;BME280;24368;52.156;20.788;2022-11-23T16:01:06;99800.73;;;-0.23;100.00
38612;BME280;24368;52.156;20.788;2022-11-23T16:11:31;99810.44;;;-0.15;100.00
38612;BME280;24368;52.156;20.788;2022-11-23T16:16:35;99809.63;;;-0.13;100.00
38612;BME280;24368;52.156;20.788;2022-11-23T16:21:43;99813.83;;;-0.19;100.00
38612;BME280;24368;52.156;20.788;2022-11-23T16:26:45;99816.30;;;-0.23;100.00
38612;BME280;24368;52.156;20.788;2022-11-23T16:31:51;99810.90;;;-0.22;100.00
38612;BME280;24368;52.156;20.788;2022-11-23T16:36:54;99810.24;;;-0.15;100.00
38612;BME280;24368;52.156;20.788;2022-11-23T16:41:56;99805.69;;;-0.11;100.00
38612;BME280;24368;52.156;20.788;2022-11-23T16:52:18;99809.67;;;-0.22;100.00
38612;BME280;24368;52.156;20.788;2022-11-23T16:57:31;99811.19;;;-0.30;100.00
38612;BME280;24368;52.156;20.788;2022-11-23T17:02:33;99807.13;;;-0.29;100.00
38612;BME280;24368;52.156;20.788;2022-11-23T17:07:35;99816.25;;;-0.22;100.00
38612;BME280;24368;52.156;20.788;2022-11-23T17:12:36;99813.02;;;-0.20;100.00
38612;BME280;24368;52.156;20.788;2022-11-23T17:17:38;99810.52;;;-0.22;100.00
38612;BME280;24368;52.156;20.788;2022-11-23T17:22:39;99809.98;;;-0.33;100.00
38612;BME280;24368;52.156;20.788;2022-11-23T17:27:40;99797.46;;;-0.34;100.00
38612;BME280;24368;52.156;20.788;2022-11-23T17:32:42;99796.59;;;-0.32;100.00
38612;BME280;24368;52.156;20.788;2022-11-23T17:37:43;99796.20;;;-0.28;100.00
38612;BME280;24368;52.156;20.788;2022-11-23T17:42:45;99804.70;;;-0.26;100.00
38612;BME280;24368;52.156;20.788;2022-11-23T17:47:47;99820.47;;;-0.34;100.00
38612;BME280;24368;52.156;20.788;2022-11-23T17:52:49;99823.48;;;-0.38;100.00
38612;BME280;24368;52.156;20.788;2022-11-23T17:57:50;99830.35;;;-0.43;100.00
38612;BME280;24368;52.156;20.788;2022-11-23T18:02:51;99833.02;;;-0.41;100.00
38612;BME280;24368;52.156;20.788;2022-11-23T18:07:52;99825.81;;;-0.42;100.00
38612;BME280;24368;52.156;20.788;2022-11-23T18:12:53;99826.98;;;-0.38;100.00
38612;BME280;24368;52.156;20.788;2022-11-23T18:17:55;99816.44;;;-0.47;100.00
38612;BME280;24368;52.156;20.788;2022-11-23T18:22:56;99816.00;;;-0.54;100.00
38612;BME280;24368;52.156;20.788;2022-11-23T18:27:57;99815.25;;;-0.61;100.00
38612;BME280;24368;52.156;20.788;2022-11-23T18:32:59;99809.16;;;-0.52;100.00
38612;BME280;24368;52.156;20.788;2022-11-23T18:38:00;99810.33;;;-0.49;100.00
38612;BME280;24368;52.156;20.788;2022-11-23T18:43:01;99814.86;;;-0.46;100.00
38612;BME280;24368;52.156;20.788;2022-11-23T18:48:02;99810.97;;;-0.56;100.00
38612;BME280;24368;52.156;20.788;2022-11-23T18:53:05;99806.53;;;-0.68;100.00
38612;BME280;24368;52.156;20.788;2022-11-23T18:58:06;99807.08;;;-0.66;100.00
38612;BME280;24368;52.156;20.788;2022-11-23T19:03:07;99815.72;;;-0.60;100.00
38612;BME280;24368;52.156;20.788;2022-11-23T19:08:08;99808.02;;;-0.64;100.00
38612;BME280;24368;52.156;20.788;2022-11-23T19:13:10;99803.48;;;-0.63;100.00
38612;BME280;24368;52.156;20.788;2022-11-23T19:18:11;99800.46;;;-0.65;100.00
38612;BME280;24368;52.156;20.788;2022-11-23T19:23:12;99804.27;;;-0.68;100.00
38612;BME280;24368;52.156;20.788;2022-11-23T19:28:13;99803.75;;;-0.73;100.00
38612;BME280;24368;52.156;20.788;2022-11-23T19:33:14;99809.13;;;-0.68;100.00
38612;BME280;24368;52.156;20.788;2022-11-23T19:38:16;99808.86;;;-0.64;100.00
38612;BME280;24368;52.156;20.788;2022-11-23T19:43:17;99810.70;;;-0.63;100.00
38612;BME280;24368;52.156;20.788;2022-11-23T19:48:18;99810.65;;;-0.64;100.00
38612;BME280;24368;52.156;20.788;2022-11-23T19:53:22;99814.96;;;-0.67;100.00
38612;BME280;24368;52.156;20.788;2022-11-23T19:58:23;99821.80;;;-0.77;100.00
38612;BME280;24368;52.156;20.788;2022-11-23T20:03:24;99824.13;;;-0.87;100.00
38612;BME280;24368;52.156;20.788;2022-11-23T20:08:26;99825.34;;;-0.82;100.00
38612;BME280;24368;52.156;20.788;2022-11-23T20:13:28;99820.44;;;-0.75;100.00
38612;BME280;24368;52.156;20.788;2022-11-23T20:18:29;99818.36;;;-0.69;100.00
38612;BME280;24368;52.156;20.788;2022-11-23T20:23:31;99828.28;;;-0.70;100.00
38612;BME280;24368;52.156;20.788;2022-11-23T20:28:33;99834.72;;;-0.85;100.00
38612;BME280;24368;52.156;20.788;2022-11-23T20:33:35;99832.97;;;-0.93;100.00
38612;BME280;24368;52.156;20.788;2022-11-23T20:38:37;99828.93;;;-1.06;100.00
38612;BME280;24368;52.156;20.788;2022-11-23T20:43:39;99833.52;;;-1.05;100.00
38612;BME280;24368;52.156;20.788;2022-11-23T20:48:47;99842.86;;;-0.93;100.00
38612;BME280;24368;52.156;20.788;2022-11-23T20:53:49;99844.80;;;-0.91;100.00
38612;BME280;24368;52.156;20.788;2022-11-23T20:58:55;99837.48;;;-0.90;100.00
38612;BME280;24368;52.156;20.788;2022-11-23T21:03:58;99836.27;;;-0.93;100.00
38612;BME280;24368;52.156;20.788;2022-11-23T21:09:02;99834.31;;;-0.98;100.00
38612;BME280;24368;52.156;20.788;2022-11-23T21:14:05;99846.75;;;-0.98;100.00
38612;BME280;24368;52.156;20.788;2022-11-23T21:19:08;99837.29;;;-0.96;100.00
38612;BME280;24368;52.156;20.788;2022-11-23T21:24:10;99836.31;;;-0.88;100.00
38612;BME280;24368;52.156;20.788;2022-11-23T21:29:11;99831.18;;;-0.86;100.00
38612;BME280;24368;52.156;20.788;2022-11-23T21:34:18;99832.48;;;-0.90;100.00
38612;BME280;24368;52.156;20.788;2022-11-23T21:39:20;99834.03;;;-0.96;100.00
38612;BME280;24368;52.156;20.788;2022-11-23T21:44:22;99840.36;;;-0.98;100.00
38612;BME280;24368;52.156;20.788;2022-11-23T21:49:25;99837.27;;;-0.95;100.00
38612;BME280;24368;52.156;20.788;2022-11-23T21:54:27;99832.38;;;-0.94;100.00
38612;BME280;24368;52.156;20.788;2022-11-23T21:59:28;99841.05;;;-0.98;100.00
38612;BME280;24368;52.156;20.788;2022-11-23T22:04:29;99847.76;;;-1.06;100.00
38612;BME280;24368;52.156;20.788;2022-11-23T22:09:30;99849.05;;;-1.07;100.00
38612;BME280;24368;52.156;20.788;2022-11-23T22:14:34;99846.75;;;-1.14;100.00
38612;BME280;24368;52.156;20.788;2022-11-23T22:19:35;99848.76;;;-1.16;100.00
38612;BME280;24368;52.156;20.788;2022-11-23T22:24:36;99854.52;;;-1.12;100.00
38612;BME280;24368;52.156;20.788;2022-11-23T22:29:37;99850.48;;;-1.11;100.00
38612;BME280;24368;52.156;20.788;2022-11-23T22:34:39;99856.34;;;-1.10;100.00
38612;BME280;24368;52.156;20.788;2022-11-23T22:39:40;99849.54;;;-1.15;100.00
38612;BME280;24368;52.156;20.788;2022-11-23T22:44:41;99851.35;;;-1.16;100.00
38612;BME280;24368;52.156;20.788;2022-11-23T22:49:42;99854.91;;;-1.12;100.00
38612;BME280;24368;52.156;20.788;2022-11-23T22:54:43;99850.56;;;-1.09;100.00
38612;BME280;24368;52.156;20.788;2022-11-23T22:59:44;99845.09;;;-1.10;100.00
38612;BME280;24368;52.156;20.788;2022-11-23T23:04:45;99848.87;;;-1.18;100.00
38612;BME280;24368;52.156;20.788;2022-11-23T23:09:47;99855.27;;;-1.21;100.00
38612;BME280;24368;52.156;20.788;2022-11-23T23:14:48;99858.86;;;-1.24;100.00
38612;BME280;24368;52.156;20.788;2022-11-23T23:19:49;99859.81;;;-1.16;100.00
38612;BME280;24368;52.156;20.788;2022-11-23T23:24:50;99856.05;;;-1.08;100.00
38612;BME280;24368;52.156;20.788;2022-11-23T23:29:52;99848.70;;;-1.07;100.00
38612;BME280;24368;52.156;20.788;2022-11-23T23:34:53;99853.12;;;-1.17;100.00
38612;BME280;24368;52.156;20.788;2022-11-23T23:39:54;99855.98;;;-1.25;100.00
38612;BME280;24368;52.156;20.788;2022-11-23T23:44:55;99853.56;;;-1.34;100.00
38612;BME280;24368;52.156;20.788;2022-11-23T23:49:57;99854.25;;;-1.31;100.00
38612;BME280;24368;52.156;20.788;2022-11-23T23:54:58;99847.70;;;-1.22;100.00
38612;BME280;24368;52.156;20.788;2022-11-23T23:59:59;99847.42;;;-1.17;100.00
